sensor_id;sensor_type;location;lat;lon;timestamp;temperature;humidity
11744;DHT22;5929;51.906;7.674;2023-04-12T00:02:21;8.80;97.70
11744;DHT22;5929;51.906;7.674;2023-04-12T00:04:48;8.80;97.40
11744;DHT22;5929;51.906;7.674;2023-04-12T00:07:20;8.80;97.30
11744;DHT22;5929;51.906;7.674;2023-04-12T00:09:48;8.80;97.10
11744;DHT22;5929;51.906;7.674;2023-04-12T00:12:16;8.80;97.50
11744;DHT22;5929;51.906;7.674;2023-04-12T00:14:43;8.80;97.20
11744;DHT22;5929;51.906;7.674;2023-04-12T00:17:10;8.80;97.30
11744;DHT22;5929;51.906;7.674;2023-04-12T00:19:37;8.80;97.10
11744;DHT22;5929;51.906;7.674;2023-04-12T00:22:06;8.80;97.30
11744;DHT22;5929;51.906;7.674;2023-04-12T00:24:33;8.80;97.00
11744;DHT22;5929;51.906;7.674;2023-04-12T00:27:01;8.80;97.40
11744;DHT22;5929;51.906;7.674;2023-04-12T00:29:30;8.80;97.30
11744;DHT22;5929;51.906;7.674;2023-04-12T00:31:56;8.80;97.50
11744;DHT22;5929;51.906;7.674;2023-04-12T00:34:24;8.80;97.20
11744;DHT22;5929;51.906;7.674;2023-04-12T00:36:51;8.80;96.90
11744;DHT22;5929;51.906;7.674;2023-04-12T00:39:18;8.80;97.10
11744;DHT22;5929;51.906;7.674;2023-04-12T00:41:44;8.80;97.50
11744;DHT22;5929;51.906;7.674;2023-04-12T00:44:13;8.80;97.30
11744;DHT22;5929;51.906;7.674;2023-04-12T00:46:42;8.80;97.40
11744;DHT22;5929;51.906;7.674;2023-04-12T00:49:10;8.80;97.60
11744;DHT22;5929;51.906;7.674;2023-04-12T00:51:38;8.80;97.40
11744;DHT22;5929;51.906;7.674;2023-04-12T00:54:06;8.70;97.70
11744;DHT22;5929;51.906;7.674;2023-04-12T00:56:33;8.80;98.00
11744;DHT22;5929;51.906;7.674;2023-04-12T00:59:01;8.70;97.70
11744;DHT22;5929;51.906;7.674;2023-04-12T01:01:29;8.70;97.60
11744;DHT22;5929;51.906;7.674;2023-04-12T01:03:57;8.70;98.00
11744;DHT22;5929;51.906;7.674;2023-04-12T01:06:41;8.70;97.40
11744;DHT22;5929;51.906;7.674;2023-04-12T01:09:22;8.70;97.70
11744;DHT22;5929;51.906;7.674;2023-04-12T01:12:01;8.70;98.00
11744;DHT22;5929;51.906;7.674;2023-04-12T01:14:36;8.70;97.70
11744;DHT22;5929;51.906;7.674;2023-04-12T01:17:13;8.70;97.60
11744;DHT22;5929;51.906;7.674;2023-04-12T01:19:54;8.70;97.90
11744;DHT22;5929;51.906;7.674;2023-04-12T01:22:44;8.80;97.20
11744;DHT22;5929;51.906;7.674;2023-04-12T01:25:28;8.70;97.40
11744;DHT22;5929;51.906;7.674;2023-04-12T01:28:02;8.80;97.20
11744;DHT22;5929;51.906;7.674;2023-04-12T01:30:30;8.70;97.10
11744;DHT22;5929;51.906;7.674;2023-04-12T01:33:00;8.80;97.20
11744;DHT22;5929;51.906;7.674;2023-04-12T01:35:30;8.80;97.20
11744;DHT22;5929;51.906;7.674;2023-04-12T01:37:58;8.80;97.00
11744;DHT22;5929;51.906;7.674;2023-04-12T01:40:26;8.80;97.40
11744;DHT22;5929;51.906;7.674;2023-04-12T01:43:04;8.90;96.70
11744;DHT22;5929;51.906;7.674;2023-04-12T01:45:31;8.80;96.90
11744;DHT22;5929;51.906;7.674;2023-04-12T01:47:58;8.80;97.30
11744;DHT22;5929;51.906;7.674;2023-04-12T01:50:32;8.80;97.30
11744;DHT22;5929;51.906;7.674;2023-04-12T01:53:02;8.90;96.90
11744;DHT22;5929;51.906;7.674;2023-04-12T01:55:33;8.90;96.90
11744;DHT22;5929;51.906;7.674;2023-04-12T01:58:04;8.90;97.10
11744;DHT22;5929;51.906;7.674;2023-04-12T02:00:34;9.00;96.80
11744;DHT22;5929;51.906;7.674;2023-04-12T02:03:01;8.90;97.10
11744;DHT22;5929;51.906;7.674;2023-04-12T02:05:31;8.90;97.10
11744;DHT22;5929;51.906;7.674;2023-04-12T02:08:00;8.90;97.20
11744;DHT22;5929;51.906;7.674;2023-04-12T02:10:28;8.90;97.40
11744;DHT22;5929;51.906;7.674;2023-04-12T02:12:57;8.90;97.30
11744;DHT22;5929;51.906;7.674;2023-04-12T02:15:25;8.90;97.20
11744;DHT22;5929;51.906;7.674;2023-04-12T02:17:53;9.00;96.90
11744;DHT22;5929;51.906;7.674;2023-04-12T02:20:20;9.00;97.00
11744;DHT22;5929;51.906;7.674;2023-04-12T02:22:48;9.00;97.20
11744;DHT22;5929;51.906;7.674;2023-04-12T02:25:15;9.00;97.80
11744;DHT22;5929;51.906;7.674;2023-04-12T02:27:43;9.00;97.80
11744;DHT22;5929;51.906;7.674;2023-04-12T02:30:11;9.00;97.80
11744;DHT22;5929;51.906;7.674;2023-04-12T02:32:39;9.00;98.20
11744;DHT22;5929;51.906;7.674;2023-04-12T02:35:10;9.00;98.90
11744;DHT22;5929;51.906;7.674;2023-04-12T02:37:37;9.00;98.60
11744;DHT22;5929;51.906;7.674;2023-04-12T02:40:04;8.90;98.80
11744;DHT22;5929;51.906;7.674;2023-04-12T02:42:36;8.90;99.00
11744;DHT22;5929;51.906;7.674;2023-04-12T02:45:03;8.90;99.10
11744;DHT22;5929;51.906;7.674;2023-04-12T02:47:31;8.80;99.70
11744;DHT22;5929;51.906;7.674;2023-04-12T02:49:59;8.80;99.90
11744;DHT22;5929;51.906;7.674;2023-04-12T02:52:26;8.80;99.90
11744;DHT22;5929;51.906;7.674;2023-04-12T02:54:55;8.80;99.70
11744;DHT22;5929;51.906;7.674;2023-04-12T02:57:22;8.90;99.80
11744;DHT22;5929;51.906;7.674;2023-04-12T02:59:50;8.90;99.90
11744;DHT22;5929;51.906;7.674;2023-04-12T03:02:18;8.90;99.80
11744;DHT22;5929;51.906;7.674;2023-04-12T03:04:45;8.90;99.90
11744;DHT22;5929;51.906;7.674;2023-04-12T03:07:17;8.90;99.90
11744;DHT22;5929;51.906;7.674;2023-04-12T03:09:44;9.00;99.90
11744;DHT22;5929;51.906;7.674;2023-04-12T03:12:11;9.00;99.70
11744;DHT22;5929;51.906;7.674;2023-04-12T03:14:38;9.00;99.70
11744;DHT22;5929;51.906;7.674;2023-04-12T03:17:04;9.10;99.60
11744;DHT22;5929;51.906;7.674;2023-04-12T03:19:31;9.00;99.90
11744;DHT22;5929;51.906;7.674;2023-04-12T03:21:59;9.00;99.80
11744;DHT22;5929;51.906;7.674;2023-04-12T03:24:28;9.00;99.60
11744;DHT22;5929;51.906;7.674;2023-04-12T03:26:58;9.00;99.70
11744;DHT22;5929;51.906;7.674;2023-04-12T03:29:26;9.00;99.70
11744;DHT22;5929;51.906;7.674;2023-04-12T03:31:53;9.00;99.90
11744;DHT22;5929;51.906;7.674;2023-04-12T03:34:22;9.00;99.90
11744;DHT22;5929;51.906;7.674;2023-04-12T03:36:49;9.00;99.90
11744;DHT22;5929;51.906;7.674;2023-04-12T03:39:16;9.00;99.90
11744;DHT22;5929;51.906;7.674;2023-04-12T03:41:44;9.00;99.90
11744;DHT22;5929;51.906;7.674;2023-04-12T03:44:11;8.90;99.90
11744;DHT22;5929;51.906;7.674;2023-04-12T03:46:38;8.90;99.90
11744;DHT22;5929;51.906;7.674;2023-04-12T03:49:05;8.90;99.90
11744;DHT22;5929;51.906;7.674;2023-04-12T03:51:35;8.90;99.90
11744;DHT22;5929;51.906;7.674;2023-04-12T03:54:07;8.90;99.90
11744;DHT22;5929;51.906;7.674;2023-04-12T03:56:34;8.90;99.90
11744;DHT22;5929;51.906;7.674;2023-04-12T03:59:02;8.80;99.90
11744;DHT22;5929;51.906;7.674;2023-04-12T04:01:29;8.80;99.90
11744;DHT22;5929;51.906;7.674;2023-04-12T04:03:56;8.80;99.90
11744;DHT22;5929;51.906;7.674;2023-04-12T04:06:22;8.80;99.90
11744;DHT22;5929;51.906;7.674;2023-04-12T04:08:50;8.80;99.90
11744;DHT22;5929;51.906;7.674;2023-04-12T04:11:16;8.70;99.90
11744;DHT22;5929;51.906;7.674;2023-04-12T04:13:43;8.70;99.90
11744;DHT22;5929;51.906;7.674;2023-04-12T04:16:12;8.70;99.90
11744;DHT22;5929;51.906;7.674;2023-04-12T04:18:39;8.70;99.90
11744;DHT22;5929;51.906;7.674;2023-04-12T04:21:06;8.70;99.90
11744;DHT22;5929;51.906;7.674;2023-04-12T04:23:33;8.70;99.90
11744;DHT22;5929;51.906;7.674;2023-04-12T04:26:04;8.70;99.90
11744;DHT22;5929;51.906;7.674;2023-04-12T04:28:34;8.70;99.90
11744;DHT22;5929;51.906;7.674;2023-04-12T04:31:01;8.80;99.90
11744;DHT22;5929;51.906;7.674;2023-04-12T04:33:32;8.70;99.90
11744;DHT22;5929;51.906;7.674;2023-04-12T04:35:59;8.70;99.90
11744;DHT22;5929;51.906;7.674;2023-04-12T04:38:26;8.70;99.90
11744;DHT22;5929;51.906;7.674;2023-04-12T04:40:53;8.70;99.90
11744;DHT22;5929;51.906;7.674;2023-04-12T04:43:20;8.70;99.90
11744;DHT22;5929;51.906;7.674;2023-04-12T04:45:47;8.70;99.90
11744;DHT22;5929;51.906;7.674;2023-04-12T04:48:16;8.70;99.90
11744;DHT22;5929;51.906;7.674;2023-04-12T04:50:44;8.70;99.90
11744;DHT22;5929;51.906;7.674;2023-04-12T04:53:11;8.60;99.90
11744;DHT22;5929;51.906;7.674;2023-04-12T04:55:38;8.60;99.90
11744;DHT22;5929;51.906;7.674;2023-04-12T04:58:05;8.70;99.90
11744;DHT22;5929;51.906;7.674;2023-04-12T05:00:32;8.70;99.90
11744;DHT22;5929;51.906;7.674;2023-04-12T05:03:00;8.70;99.90
11744;DHT22;5929;51.906;7.674;2023-04-12T05:05:29;8.60;99.90
11744;DHT22;5929;51.906;7.674;2023-04-12T05:07:58;8.60;99.90
11744;DHT22;5929;51.906;7.674;2023-04-12T05:10:27;8.60;99.90
11744;DHT22;5929;51.906;7.674;2023-04-12T05:12:54;8.60;99.90
11744;DHT22;5929;51.906;7.674;2023-04-12T05:15:23;8.60;99.90
11744;DHT22;5929;51.906;7.674;2023-04-12T05:17:50;8.50;99.90
11744;DHT22;5929;51.906;7.674;2023-04-12T05:20:17;8.50;99.90
11744;DHT22;5929;51.906;7.674;2023-04-12T05:22:44;8.50;99.90
11744;DHT22;5929;51.906;7.674;2023-04-12T05:25:14;8.60;99.90
11744;DHT22;5929;51.906;7.674;2023-04-12T05:27:43;8.60;99.90
11744;DHT22;5929;51.906;7.674;2023-04-12T05:30:10;8.50;99.90
11744;DHT22;5929;51.906;7.674;2023-04-12T05:32:37;8.60;99.90
11744;DHT22;5929;51.906;7.674;2023-04-12T05:35:04;8.60;99.90
11744;DHT22;5929;51.906;7.674;2023-04-12T05:37:31;8.60;99.90
11744;DHT22;5929;51.906;7.674;2023-04-12T05:39:58;8.70;99.90
11744;DHT22;5929;51.906;7.674;2023-04-12T05:42:26;8.70;99.90
11744;DHT22;5929;51.906;7.674;2023-04-12T05:44:53;8.70;99.90
11744;DHT22;5929;51.906;7.674;2023-04-12T05:47:20;8.70;99.90
11744;DHT22;5929;51.906;7.674;2023-04-12T05:49:47;8.80;99.90
11744;DHT22;5929;51.906;7.674;2023-04-12T05:52:14;8.80;99.90
11744;DHT22;5929;51.906;7.674;2023-04-12T05:54:41;8.80;99.90
11744;DHT22;5929;51.906;7.674;2023-04-12T05:57:08;8.80;99.90
11744;DHT22;5929;51.906;7.674;2023-04-12T05:59:39;8.80;99.90
11744;DHT22;5929;51.906;7.674;2023-04-12T06:02:06;8.70;99.90
11744;DHT22;5929;51.906;7.674;2023-04-12T06:04:33;8.70;99.90
11744;DHT22;5929;51.906;7.674;2023-04-12T06:07:02;8.60;99.90
11744;DHT22;5929;51.906;7.674;2023-04-12T06:09:30;8.60;99.90
11744;DHT22;5929;51.906;7.674;2023-04-12T06:11:57;8.50;99.90
11744;DHT22;5929;51.906;7.674;2023-04-12T06:14:23;8.50;99.90
11744;DHT22;5929;51.906;7.674;2023-04-12T06:16:52;8.40;99.90
11744;DHT22;5929;51.906;7.674;2023-04-12T06:19:18;8.40;99.90
11744;DHT22;5929;51.906;7.674;2023-04-12T06:21:48;8.30;99.90
11744;DHT22;5929;51.906;7.674;2023-04-12T06:24:14;8.30;99.90
11744;DHT22;5929;51.906;7.674;2023-04-12T06:26:41;8.30;99.90
11744;DHT22;5929;51.906;7.674;2023-04-12T06:29:11;8.30;99.90
11744;DHT22;5929;51.906;7.674;2023-04-12T06:31:38;8.30;99.90
11744;DHT22;5929;51.906;7.674;2023-04-12T06:34:06;8.20;99.90
11744;DHT22;5929;51.906;7.674;2023-04-12T06:36:33;8.30;99.90
11744;DHT22;5929;51.906;7.674;2023-04-12T06:39:02;8.20;99.90
11744;DHT22;5929;51.906;7.674;2023-04-12T06:41:29;8.30;99.90
11744;DHT22;5929;51.906;7.674;2023-04-12T06:43:56;8.30;99.90
11744;DHT22;5929;51.906;7.674;2023-04-12T06:46:25;8.30;99.90
11744;DHT22;5929;51.906;7.674;2023-04-12T06:48:52;8.30;99.90
11744;DHT22;5929;51.906;7.674;2023-04-12T06:51:20;8.30;99.90
11744;DHT22;5929;51.906;7.674;2023-04-12T06:53:47;8.30;99.90
11744;DHT22;5929;51.906;7.674;2023-04-12T06:56:14;8.30;99.90
11744;DHT22;5929;51.906;7.674;2023-04-12T06:58:40;8.40;99.90
11744;DHT22;5929;51.906;7.674;2023-04-12T07:01:08;8.40;99.90
11744;DHT22;5929;51.906;7.674;2023-04-12T07:03:35;8.40;99.90
11744;DHT22;5929;51.906;7.674;2023-04-12T07:06:03;8.40;99.90
11744;DHT22;5929;51.906;7.674;2023-04-12T07:08:34;8.40;99.90
11744;DHT22;5929;51.906;7.674;2023-04-12T07:11:01;8.40;99.90
11744;DHT22;5929;51.906;7.674;2023-04-12T07:13:28;8.40;99.90
11744;DHT22;5929;51.906;7.674;2023-04-12T07:15:55;8.50;99.90
11744;DHT22;5929;51.906;7.674;2023-04-12T07:18:22;8.50;99.90
11744;DHT22;5929;51.906;7.674;2023-04-12T07:20:53;8.50;99.90
11744;DHT22;5929;51.906;7.674;2023-04-12T07:23:20;8.60;99.90
11744;DHT22;5929;51.906;7.674;2023-04-12T07:25:48;8.60;99.90
11744;DHT22;5929;51.906;7.674;2023-04-12T07:28:15;8.60;99.90
11744;DHT22;5929;51.906;7.674;2023-04-12T07:30:42;8.70;99.90
11744;DHT22;5929;51.906;7.674;2023-04-12T07:33:08;8.70;99.90
11744;DHT22;5929;51.906;7.674;2023-04-12T07:35:35;8.80;99.90
11744;DHT22;5929;51.906;7.674;2023-04-12T07:38:02;8.80;99.90
11744;DHT22;5929;51.906;7.674;2023-04-12T07:40:29;8.80;99.90
11744;DHT22;5929;51.906;7.674;2023-04-12T07:42:57;8.90;99.90
11744;DHT22;5929;51.906;7.674;2023-04-12T07:45:24;8.90;99.90
11744;DHT22;5929;51.906;7.674;2023-04-12T07:47:53;8.80;99.90
11744;DHT22;5929;51.906;7.674;2023-04-12T07:50:20;8.80;99.90
11744;DHT22;5929;51.906;7.674;2023-04-12T07:52:46;8.80;99.90
11744;DHT22;5929;51.906;7.674;2023-04-12T07:55:13;8.90;99.90
11744;DHT22;5929;51.906;7.674;2023-04-12T07:57:40;8.90;99.90
11744;DHT22;5929;51.906;7.674;2023-04-12T08:00:09;9.00;99.90
11744;DHT22;5929;51.906;7.674;2023-04-12T08:02:38;9.00;99.90
11744;DHT22;5929;51.906;7.674;2023-04-12T08:05:06;9.00;99.90
11744;DHT22;5929;51.906;7.674;2023-04-12T08:07:33;9.10;99.90
11744;DHT22;5929;51.906;7.674;2023-04-12T08:10:00;9.10;99.90
11744;DHT22;5929;51.906;7.674;2023-04-12T08:12:27;9.10;99.90
11744;DHT22;5929;51.906;7.674;2023-04-12T08:14:54;9.20;99.90
11744;DHT22;5929;51.906;7.674;2023-04-12T08:17:22;9.30;99.90
11744;DHT22;5929;51.906;7.674;2023-04-12T08:19:48;9.40;99.90
11744;DHT22;5929;51.906;7.674;2023-04-12T08:22:15;9.50;99.90
11744;DHT22;5929;51.906;7.674;2023-04-12T08:24:42;9.70;99.90
11744;DHT22;5929;51.906;7.674;2023-04-12T08:27:09;9.80;99.90
11744;DHT22;5929;51.906;7.674;2023-04-12T08:29:38;9.80;99.90
11744;DHT22;5929;51.906;7.674;2023-04-12T08:32:05;9.80;99.90
11744;DHT22;5929;51.906;7.674;2023-04-12T08:34:36;9.80;99.90
11744;DHT22;5929;51.906;7.674;2023-04-12T08:37:03;9.70;99.90
11744;DHT22;5929;51.906;7.674;2023-04-12T08:39:32;9.70;99.90
11744;DHT22;5929;51.906;7.674;2023-04-12T08:41:59;9.70;99.90
11744;DHT22;5929;51.906;7.674;2023-04-12T08:44:33;9.70;99.90
11744;DHT22;5929;51.906;7.674;2023-04-12T08:47:02;9.70;99.90
11744;DHT22;5929;51.906;7.674;2023-04-12T08:49:30;9.70;99.90
11744;DHT22;5929;51.906;7.674;2023-04-12T08:52:00;9.60;99.90
11744;DHT22;5929;51.906;7.674;2023-04-12T08:54:30;9.50;99.90
11744;DHT22;5929;51.906;7.674;2023-04-12T08:56:59;9.50;99.90
11744;DHT22;5929;51.906;7.674;2023-04-12T08:59:27;9.40;99.90
11744;DHT22;5929;51.906;7.674;2023-04-12T09:01:55;9.40;99.90
11744;DHT22;5929;51.906;7.674;2023-04-12T09:04:23;9.50;99.90
11744;DHT22;5929;51.906;7.674;2023-04-12T09:06:50;9.50;99.90
11744;DHT22;5929;51.906;7.674;2023-04-12T09:09:19;9.60;99.90
11744;DHT22;5929;51.906;7.674;2023-04-12T09:11:45;9.60;99.90
11744;DHT22;5929;51.906;7.674;2023-04-12T09:14:20;9.60;99.90
11744;DHT22;5929;51.906;7.674;2023-04-12T09:16:47;9.70;99.90
11744;DHT22;5929;51.906;7.674;2023-04-12T09:19:14;9.80;99.90
11744;DHT22;5929;51.906;7.674;2023-04-12T09:21:52;9.90;99.90
11744;DHT22;5929;51.906;7.674;2023-04-12T09:24:20;9.90;99.90
11744;DHT22;5929;51.906;7.674;2023-04-12T09:26:48;9.90;99.90
11744;DHT22;5929;51.906;7.674;2023-04-12T09:29:22;9.90;99.90
11744;DHT22;5929;51.906;7.674;2023-04-12T09:32:00;10.00;99.90
11744;DHT22;5929;51.906;7.674;2023-04-12T09:34:27;10.00;99.90
11744;DHT22;5929;51.906;7.674;2023-04-12T09:36:54;10.00;99.90
11744;DHT22;5929;51.906;7.674;2023-04-12T09:39:32;10.00;99.90
11744;DHT22;5929;51.906;7.674;2023-04-12T09:42:05;10.00;99.90
11744;DHT22;5929;51.906;7.674;2023-04-12T09:44:35;10.10;99.90
11744;DHT22;5929;51.906;7.674;2023-04-12T09:47:03;10.10;99.90
11744;DHT22;5929;51.906;7.674;2023-04-12T09:49:37;10.10;99.90
11744;DHT22;5929;51.906;7.674;2023-04-12T09:52:05;10.10;99.90
11744;DHT22;5929;51.906;7.674;2023-04-12T09:54:37;10.10;99.90
11744;DHT22;5929;51.906;7.674;2023-04-12T09:57:06;10.20;99.90
11744;DHT22;5929;51.906;7.674;2023-04-12T09:59:36;10.20;99.90
11744;DHT22;5929;51.906;7.674;2023-04-12T10:02:06;10.20;99.90
11744;DHT22;5929;51.906;7.674;2023-04-12T10:04:35;10.20;99.90
11744;DHT22;5929;51.906;7.674;2023-04-12T10:07:03;10.10;99.90
11744;DHT22;5929;51.906;7.674;2023-04-12T10:09:31;10.10;99.90
11744;DHT22;5929;51.906;7.674;2023-04-12T10:12:01;10.20;99.90
11744;DHT22;5929;51.906;7.674;2023-04-12T10:14:29;10.20;99.90
11744;DHT22;5929;51.906;7.674;2023-04-12T10:16:57;10.20;99.90
11744;DHT22;5929;51.906;7.674;2023-04-12T10:19:26;10.20;99.90
11744;DHT22;5929;51.906;7.674;2023-04-12T10:21:53;10.20;99.90
11744;DHT22;5929;51.906;7.674;2023-04-12T10:24:21;10.30;99.90
11744;DHT22;5929;51.906;7.674;2023-04-12T10:26:49;10.40;99.90
11744;DHT22;5929;51.906;7.674;2023-04-12T10:29:24;10.50;99.90
11744;DHT22;5929;51.906;7.674;2023-04-12T10:31:51;10.40;99.90
11744;DHT22;5929;51.906;7.674;2023-04-12T10:34:22;10.40;99.90
11744;DHT22;5929;51.906;7.674;2023-04-12T10:36:51;10.40;99.90
11744;DHT22;5929;51.906;7.674;2023-04-12T10:39:34;10.50;99.90
11744;DHT22;5929;51.906;7.674;2023-04-12T10:42:22;10.60;99.90
11744;DHT22;5929;51.906;7.674;2023-04-12T10:44:51;10.80;99.90
11744;DHT22;5929;51.906;7.674;2023-04-12T10:47:55;11.00;99.90
11744;DHT22;5929;51.906;7.674;2023-04-12T10:50:26;11.40;99.90
11744;DHT22;5929;51.906;7.674;2023-04-12T10:53:19;11.90;99.90
11744;DHT22;5929;51.906;7.674;2023-04-12T10:55:47;12.20;99.90
11744;DHT22;5929;51.906;7.674;2023-04-12T11:01:16;12.10;99.90
11744;DHT22;5929;51.906;7.674;2023-04-12T11:06:47;12.30;99.90
11744;DHT22;5929;51.906;7.674;2023-04-12T11:09:20;12.00;99.90
11744;DHT22;5929;51.906;7.674;2023-04-12T11:11:47;11.90;99.90
11744;DHT22;5929;51.906;7.674;2023-04-12T11:14:15;11.90;99.90
11744;DHT22;5929;51.906;7.674;2023-04-12T11:19:47;12.00;99.90
11744;DHT22;5929;51.906;7.674;2023-04-12T11:22:16;12.10;99.90
11744;DHT22;5929;51.906;7.674;2023-04-12T11:24:44;12.20;99.90
11744;DHT22;5929;51.906;7.674;2023-04-12T11:27:11;12.30;99.90
11744;DHT22;5929;51.906;7.674;2023-04-12T11:29:38;12.40;99.90
11744;DHT22;5929;51.906;7.674;2023-04-12T11:32:10;12.40;99.90
11744;DHT22;5929;51.906;7.674;2023-04-12T11:34:38;12.50;99.90
11744;DHT22;5929;51.906;7.674;2023-04-12T11:37:07;12.50;99.90
11744;DHT22;5929;51.906;7.674;2023-04-12T11:39:35;12.40;99.90
11744;DHT22;5929;51.906;7.674;2023-04-12T11:42:02;12.40;99.90
11744;DHT22;5929;51.906;7.674;2023-04-12T11:44:33;12.30;99.90
11744;DHT22;5929;51.906;7.674;2023-04-12T11:47:00;12.30;99.90
11744;DHT22;5929;51.906;7.674;2023-04-12T11:49:27;12.30;99.90
11744;DHT22;5929;51.906;7.674;2023-04-12T11:52:00;12.30;99.90
11744;DHT22;5929;51.906;7.674;2023-04-12T11:54:29;12.30;99.90
11744;DHT22;5929;51.906;7.674;2023-04-12T11:56:57;12.30;99.90
11744;DHT22;5929;51.906;7.674;2023-04-12T11:59:30;12.20;99.90
11744;DHT22;5929;51.906;7.674;2023-04-12T12:01:59;12.40;99.90
11744;DHT22;5929;51.906;7.674;2023-04-12T12:04:27;12.30;99.90
11744;DHT22;5929;51.906;7.674;2023-04-12T12:06:55;12.30;99.90
11744;DHT22;5929;51.906;7.674;2023-04-12T12:09:23;12.20;99.90
11744;DHT22;5929;51.906;7.674;2023-04-12T12:11:53;12.10;99.90
11744;DHT22;5929;51.906;7.674;2023-04-12T12:14:21;11.90;99.90
11744;DHT22;5929;51.906;7.674;2023-04-12T12:16:51;11.70;99.90
11744;DHT22;5929;51.906;7.674;2023-04-12T12:19:30;11.30;99.90
11744;DHT22;5929;51.906;7.674;2023-04-12T12:22:21;10.70;99.90
11744;DHT22;5929;51.906;7.674;2023-04-12T12:24:50;10.30;99.90
11744;DHT22;5929;51.906;7.674;2023-04-12T12:27:21;10.10;99.90
11744;DHT22;5929;51.906;7.674;2023-04-12T12:29:50;9.90;99.90
11744;DHT22;5929;51.906;7.674;2023-04-12T12:32:20;9.70;99.90
11744;DHT22;5929;51.906;7.674;2023-04-12T12:34:52;9.50;99.90
11744;DHT22;5929;51.906;7.674;2023-04-12T12:37:22;9.40;99.90
11744;DHT22;5929;51.906;7.674;2023-04-12T12:40:03;9.30;99.90
11744;DHT22;5929;51.906;7.674;2023-04-12T12:42:43;9.30;99.90
11744;DHT22;5929;51.906;7.674;2023-04-12T12:45:11;9.40;99.90
11744;DHT22;5929;51.906;7.674;2023-04-12T12:47:49;9.40;99.90
11744;DHT22;5929;51.906;7.674;2023-04-12T12:50:18;9.60;99.90
11744;DHT22;5929;51.906;7.674;2023-04-12T12:52:46;9.70;99.90
11744;DHT22;5929;51.906;7.674;2023-04-12T12:55:14;9.80;99.90
11744;DHT22;5929;51.906;7.674;2023-04-12T12:57:43;10.10;99.90
11744;DHT22;5929;51.906;7.674;2023-04-12T13:00:12;10.60;99.90
11744;DHT22;5929;51.906;7.674;2023-04-12T13:02:39;11.40;99.90
11744;DHT22;5929;51.906;7.674;2023-04-12T13:05:07;12.60;99.90
11744;DHT22;5929;51.906;7.674;2023-04-12T13:07:34;13.40;99.90
11744;DHT22;5929;51.906;7.674;2023-04-12T13:10:01;14.30;99.90
11744;DHT22;5929;51.906;7.674;2023-04-12T13:12:28;15.50;99.80
11744;DHT22;5929;51.906;7.674;2023-04-12T13:14:57;16.10;99.60
11744;DHT22;5929;51.906;7.674;2023-04-12T13:17:25;17.30;95.90
11744;DHT22;5929;51.906;7.674;2023-04-12T13:19:52;17.30;98.10
11744;DHT22;5929;51.906;7.674;2023-04-12T13:22:18;17.60;95.20
11744;DHT22;5929;51.906;7.674;2023-04-12T13:24:46;17.70;93.60
11744;DHT22;5929;51.906;7.674;2023-04-12T13:27:13;16.90;93.30
11744;DHT22;5929;51.906;7.674;2023-04-12T13:29:40;16.20;93.30
11744;DHT22;5929;51.906;7.674;2023-04-12T13:32:08;16.00;92.70
11744;DHT22;5929;51.906;7.674;2023-04-12T13:34:35;16.00;92.90
11744;DHT22;5929;51.906;7.674;2023-04-12T13:37:02;16.00;92.30
11744;DHT22;5929;51.906;7.674;2023-04-12T13:39:30;15.80;92.60
11744;DHT22;5929;51.906;7.674;2023-04-12T13:41:58;15.90;92.20
11744;DHT22;5929;51.906;7.674;2023-04-12T13:44:26;16.50;91.80
11744;DHT22;5929;51.906;7.674;2023-04-12T13:46:53;16.60;91.00
11744;DHT22;5929;51.906;7.674;2023-04-12T13:49:22;16.60;91.70
11744;DHT22;5929;51.906;7.674;2023-04-12T13:51:49;16.80;91.30
11744;DHT22;5929;51.906;7.674;2023-04-12T13:54:16;17.30;90.10
11744;DHT22;5929;51.906;7.674;2023-04-12T13:56:43;17.40;90.70
11744;DHT22;5929;51.906;7.674;2023-04-12T13:59:09;17.80;90.00
11744;DHT22;5929;51.906;7.674;2023-04-12T14:01:37;17.80;90.60
11744;DHT22;5929;51.906;7.674;2023-04-12T14:04:03;17.70;88.80
11744;DHT22;5929;51.906;7.674;2023-04-12T14:06:33;17.30;91.00
11744;DHT22;5929;51.906;7.674;2023-04-12T14:09:01;17.30;89.80
11744;DHT22;5929;51.906;7.674;2023-04-12T14:11:30;17.10;90.00
11744;DHT22;5929;51.906;7.674;2023-04-12T14:14:09;17.00;90.30
11744;DHT22;5929;51.906;7.674;2023-04-12T14:16:36;17.10;90.80
11744;DHT22;5929;51.906;7.674;2023-04-12T14:19:03;17.50;90.60
11744;DHT22;5929;51.906;7.674;2023-04-12T14:21:30;17.60;90.60
11744;DHT22;5929;51.906;7.674;2023-04-12T14:23:58;17.90;88.00
11744;DHT22;5929;51.906;7.674;2023-04-12T14:26:25;17.40;89.10
11744;DHT22;5929;51.906;7.674;2023-04-12T14:28:52;17.90;89.50
11744;DHT22;5929;51.906;7.674;2023-04-12T14:31:19;17.80;88.40
11744;DHT22;5929;51.906;7.674;2023-04-12T14:33:46;17.50;86.20
11744;DHT22;5929;51.906;7.674;2023-04-12T14:36:12;16.80;87.90
11744;DHT22;5929;51.906;7.674;2023-04-12T14:38:39;16.30;90.30
11744;DHT22;5929;51.906;7.674;2023-04-12T14:41:08;15.90;90.00
11744;DHT22;5929;51.906;7.674;2023-04-12T14:43:35;15.40;90.10
11744;DHT22;5929;51.906;7.674;2023-04-12T14:46:02;15.00;90.80
11744;DHT22;5929;51.906;7.674;2023-04-12T14:48:29;14.70;91.50
11744;DHT22;5929;51.906;7.674;2023-04-12T14:50:56;14.60;92.50
11744;DHT22;5929;51.906;7.674;2023-04-12T14:53:22;14.30;92.60
11744;DHT22;5929;51.906;7.674;2023-04-12T14:55:49;14.10;92.70
11744;DHT22;5929;51.906;7.674;2023-04-12T14:58:17;13.80;92.80
11744;DHT22;5929;51.906;7.674;2023-04-12T15:00:44;13.60;93.60
11744;DHT22;5929;51.906;7.674;2023-04-12T15:03:11;13.00;94.60
11744;DHT22;5929;51.906;7.674;2023-04-12T15:05:38;12.10;95.80
11744;DHT22;5929;51.906;7.674;2023-04-12T15:08:05;11.50;96.80
11744;DHT22;5929;51.906;7.674;2023-04-12T15:10:32;11.30;97.80
11744;DHT22;5929;51.906;7.674;2023-04-12T15:12:58;11.20;98.60
11744;DHT22;5929;51.906;7.674;2023-04-12T15:15:27;11.00;99.10
11744;DHT22;5929;51.906;7.674;2023-04-12T15:17:53;10.80;99.80
11744;DHT22;5929;51.906;7.674;2023-04-12T15:20:20;10.70;99.90
11744;DHT22;5929;51.906;7.674;2023-04-12T15:22:47;10.20;99.90
11744;DHT22;5929;51.906;7.674;2023-04-12T15:25:14;9.90;99.90
11744;DHT22;5929;51.906;7.674;2023-04-12T15:27:40;9.30;99.90
11744;DHT22;5929;51.906;7.674;2023-04-12T15:30:09;9.00;99.90
11744;DHT22;5929;51.906;7.674;2023-04-12T15:32:41;8.80;99.90
11744;DHT22;5929;51.906;7.674;2023-04-12T15:35:08;8.50;99.90
11744;DHT22;5929;51.906;7.674;2023-04-12T15:37:35;8.40;99.90
11744;DHT22;5929;51.906;7.674;2023-04-12T15:40:05;8.40;99.90
11744;DHT22;5929;51.906;7.674;2023-04-12T15:42:38;8.30;99.90
11744;DHT22;5929;51.906;7.674;2023-04-12T15:45:07;8.30;99.90
11744;DHT22;5929;51.906;7.674;2023-04-12T15:47:34;8.20;99.90
11744;DHT22;5929;51.906;7.674;2023-04-12T15:50:03;8.20;99.90
11744;DHT22;5929;51.906;7.674;2023-04-12T15:52:30;8.10;99.90
11744;DHT22;5929;51.906;7.674;2023-04-12T15:54:57;8.00;99.90
11744;DHT22;5929;51.906;7.674;2023-04-12T15:57:24;8.00;99.90
11744;DHT22;5929;51.906;7.674;2023-04-12T15:59:52;8.10;99.90
11744;DHT22;5929;51.906;7.674;2023-04-12T16:02:20;8.10;99.90
11744;DHT22;5929;51.906;7.674;2023-04-12T16:04:47;8.10;99.90
11744;DHT22;5929;51.906;7.674;2023-04-12T16:07:16;8.10;99.90
11744;DHT22;5929;51.906;7.674;2023-04-12T16:09:43;8.00;99.90
11744;DHT22;5929;51.906;7.674;2023-04-12T16:12:10;8.00;99.90
11744;DHT22;5929;51.906;7.674;2023-04-12T16:14:37;8.00;99.90
11744;DHT22;5929;51.906;7.674;2023-04-12T16:17:07;8.00;99.90